createdAt,value
2018-10-21T00:00:03.747Z,43.20
2018-10-21T00:02:29.588Z,43.20
2018-10-21T00:04:55.342Z,43.20
2018-10-21T00:07:21.151Z,43.30
2018-10-21T00:09:46.944Z,43.30
2018-10-21T00:12:12.794Z,43.20
2018-10-21T00:14:38.915Z,43.20
2018-10-21T00:17:04.700Z,43.20
2018-10-21T00:19:31.380Z,43.00
2018-10-21T00:21:57.260Z,43.20
2018-10-21T00:24:23.067Z,43.20
2018-10-21T00:26:49.395Z,43.10
2018-10-21T00:29:15.195Z,43.10
2018-10-21T00:31:40.984Z,43.20
2018-10-21T00:34:09.829Z,43.10
2018-10-21T00:36:35.620Z,43.10
2018-10-21T00:39:02.932Z,43.10
2018-10-21T00:41:28.684Z,43.10
2018-10-21T00:46:26.300Z,43.00
2018-10-21T00:48:52.287Z,43.10
2018-10-21T00:51:18.926Z,43.10
2018-10-21T00:53:45.469Z,43.00
2018-10-21T00:56:11.270Z,43.00
2018-10-21T00:58:37.055Z,43.00
2018-10-21T01:01:02.848Z,43.60
2018-10-21T01:03:28.635Z,42.90
2018-10-21T01:05:55.168Z,42.80
2018-10-21T01:08:21.696Z,42.80
2018-10-21T01:10:47.484Z,42.80
2018-10-21T01:13:13.308Z,42.80
2018-10-21T01:15:39.559Z,42.70
2018-10-21T01:18:05.352Z,42.80
2018-10-21T01:20:31.262Z,42.70
2018-10-21T01:22:57.116Z,42.70
2018-10-21T01:25:22.909Z,42.70
2018-10-21T01:27:52.844Z,42.70
2018-10-21T01:30:18.898Z,42.60
2018-10-21T01:32:45.427Z,42.60
2018-10-21T01:35:11.960Z,42.80
2018-10-21T01:37:37.812Z,42.60
2018-10-21T01:42:35.981Z,42.70
2018-10-21T01:45:02.982Z,42.60
2018-10-21T01:47:28.745Z,42.60
2018-10-21T01:49:55.332Z,42.70
2018-10-21T01:52:22.132Z,42.60
2018-10-21T01:54:47.899Z,42.60
2018-10-21T01:57:13.965Z,42.60
2018-10-21T01:59:39.732Z,42.50
2018-10-21T02:02:05.529Z,42.60
2018-10-21T02:04:32.076Z,42.40
2018-10-21T02:06:57.864Z,42.60
2018-10-21T02:09:23.652Z,42.30
2018-10-21T02:14:22.388Z,42.40
2018-10-21T02:16:48.179Z,42.40
2018-10-21T02:19:13.972Z,42.40
2018-10-21T02:21:40.618Z,42.40
2018-10-21T02:24:06.410Z,42.40
2018-10-21T02:26:32.342Z,42.30
2018-10-21T02:28:58.356Z,42.40
2018-10-21T02:31:24.146Z,42.40
2018-10-21T02:33:49.935Z,42.30
2018-10-21T02:36:15.732Z,42.20
2018-10-21T02:41:13.248Z,42.30
2018-10-21T02:43:39.060Z,42.20
2018-10-21T02:46:06.194Z,42.20
2018-10-21T02:48:31.992Z,42.20
2018-10-21T02:50:57.816Z,42.20
2018-10-21T02:53:24.464Z,42.20
2018-10-21T02:55:50.276Z,42.20
2018-10-21T02:58:16.064Z,42.30
2018-10-21T03:00:43.227Z,42.10
2018-10-21T03:03:10.045Z,42.30
2018-10-21T03:05:35.804Z,42.10
2018-10-21T03:08:01.595Z,42.20
2018-10-21T03:10:27.472Z,42.00
2018-10-21T03:12:53.373Z,42.00
2018-10-21T03:15:19.169Z,42.10
2018-10-21T03:17:44.960Z,42.10
2018-10-21T03:20:10.896Z,42.20
2018-10-21T03:22:38.004Z,42.10
2018-10-21T03:25:03.806Z,42.10
2018-10-21T03:27:29.687Z,42.10
2018-10-21T03:29:55.639Z,42.10
2018-10-21T03:32:21.429Z,42.10
2018-10-21T03:34:47.220Z,41.90
2018-10-21T03:37:13.807Z,41.80
2018-10-21T03:42:11.420Z,41.80
2018-10-21T03:44:37.510Z,41.90
2018-10-21T03:47:03.305Z,42.00
2018-10-21T03:49:29.479Z,42.00
2018-10-21T03:51:55.324Z,41.90
2018-10-21T03:54:21.282Z,41.90
2018-10-21T03:56:47.274Z,41.80
2018-10-21T04:01:45.916Z,41.80
2018-10-21T04:04:12.297Z,41.70
2018-10-21T04:06:38.032Z,41.60
2018-10-21T04:09:03.820Z,41.70
2018-10-21T04:11:29.608Z,41.50
2018-10-21T04:13:55.405Z,41.70
2018-10-21T04:16:21.317Z,41.70
2018-10-21T04:18:47.152Z,41.70
2018-10-21T04:21:12.941Z,41.60
2018-10-21T04:23:39.492Z,41.60
2018-10-21T04:26:05.292Z,41.50
2018-10-21T04:28:31.191Z,41.70
2018-10-21T04:30:56.980Z,42.20
2018-10-21T04:33:22.795Z,41.70
2018-10-21T04:35:48.595Z,41.70
2018-10-21T04:38:14.384Z,41.70
2018-10-21T04:40:40.929Z,41.60
2018-10-21T04:43:06.717Z,41.50
2018-10-21T04:45:32.511Z,41.70
2018-10-21T04:47:58.335Z,41.60
2018-10-21T04:52:56.075Z,41.60
2018-10-21T04:55:21.860Z,41.40
2018-10-21T04:57:47.648Z,41.50
2018-10-21T05:00:13.439Z,41.60
2018-10-21T05:02:39.231Z,41.60
2018-10-21T05:05:05.034Z,41.50
2018-10-21T05:10:02.395Z,41.50
2018-10-21T05:12:28.248Z,41.30
2018-10-21T05:14:54.784Z,41.50
2018-10-21T05:17:21.325Z,41.50
2018-10-21T05:19:51.463Z,41.40
2018-10-21T05:22:23.034Z,41.40
2018-10-21T05:24:49.038Z,41.30
2018-10-21T05:27:14.895Z,41.10
2018-10-21T05:29:40.661Z,41.20
2018-10-21T05:32:06.456Z,41.40
2018-10-21T05:34:33.700Z,41.40
2018-10-21T05:36:59.487Z,41.20
2018-10-21T05:39:25.299Z,41.30
2018-10-21T05:41:51.325Z,41.30
2018-10-21T05:44:17.637Z,41.30
2018-10-21T05:46:43.476Z,41.40
2018-10-21T05:49:09.321Z,41.30
2018-10-21T05:51:35.313Z,41.30
2018-10-21T05:54:01.105Z,41.30
2018-10-21T05:56:27.641Z,41.40
2018-10-21T05:58:54.011Z,41.30
2018-10-21T06:01:21.588Z,41.30
2018-10-21T06:03:47.416Z,41.20
2018-10-21T06:06:13.626Z,41.30
2018-10-21T06:08:39.416Z,41.50
2018-10-21T06:11:05.351Z,41.40
2018-10-21T06:13:31.144Z,41.40
2018-10-21T06:15:57.027Z,41.40
2018-10-21T06:18:23.274Z,41.40
2018-10-21T06:20:49.160Z,41.30
2018-10-21T06:23:15.197Z,41.20
2018-10-21T06:25:40.985Z,41.00
2018-10-21T06:28:06.775Z,41.10
2018-10-21T06:30:33.359Z,41.10
2018-10-21T06:32:59.668Z,41.10
2018-10-21T06:35:25.438Z,41.00
2018-10-21T06:37:53.742Z,41.10
2018-10-21T06:40:20.692Z,41.10
2018-10-21T06:42:46.476Z,41.20
2018-10-21T06:45:12.905Z,41.10
2018-10-21T06:47:38.604Z,41.00
2018-10-21T06:50:04.404Z,41.00
2018-10-21T06:52:30.208Z,41.20
2018-10-21T06:54:58.927Z,41.10
2018-10-21T06:57:25.041Z,41.20
2018-10-21T06:59:50.695Z,40.90
2018-10-21T07:02:16.502Z,41.60
2018-10-21T07:04:42.340Z,40.90
2018-10-21T07:07:08.120Z,40.80
2018-10-21T07:09:33.913Z,40.70
2018-10-21T07:11:59.711Z,40.80
2018-10-21T07:14:25.589Z,40.50
2018-10-21T07:19:23.584Z,40.50
2018-10-21T07:21:50.379Z,40.60
2018-10-21T07:26:48.368Z,40.40
2018-10-21T07:29:14.169Z,40.20
2018-10-21T07:31:40.703Z,39.80
2018-10-21T07:34:06.510Z,39.80
2018-10-21T07:36:33.047Z,39.60
2018-10-21T07:38:58.845Z,39.50
2018-10-21T07:41:24.637Z,39.40
2018-10-21T07:43:50.423Z,39.30
2018-10-21T07:46:16.580Z,39.30
2018-10-21T07:48:42.388Z,39.20
2018-10-21T07:51:10.992Z,39.10
2018-10-21T07:53:42.414Z,39.00
2018-10-21T07:56:08.214Z,39.00
2018-10-21T07:58:34.740Z,38.90
2018-10-21T08:01:01.931Z,38.90
2018-10-21T08:03:27.639Z,38.90
2018-10-21T08:05:53.427Z,38.80
2018-10-21T08:08:23.205Z,38.80
2018-10-21T08:10:49.016Z,38.80
2018-10-21T08:13:15.800Z,38.60
2018-10-21T08:15:42.331Z,38.60
2018-10-21T08:18:08.863Z,38.60
2018-10-21T08:20:36.038Z,38.50
2018-10-21T08:23:02.234Z,38.60
2018-10-21T08:25:28.040Z,38.50
2018-10-21T08:27:53.865Z,38.50
2018-10-21T08:30:20.425Z,38.90
2018-10-21T08:32:47.015Z,38.50
2018-10-21T08:35:12.813Z,38.50
2018-10-21T08:37:39.119Z,38.50
2018-10-21T08:40:05.138Z,38.50
2018-10-21T08:42:30.888Z,38.50
2018-10-21T08:44:57.421Z,38.50
2018-10-21T08:47:23.217Z,38.40
2018-10-21T08:49:49.347Z,38.60
2018-10-21T08:52:15.221Z,38.60
2018-10-21T08:54:41.313Z,38.50
2018-10-21T08:57:07.117Z,38.60
2018-10-21T08:59:32.912Z,38.70
2018-10-21T09:01:58.751Z,38.60
2018-10-21T09:04:25.302Z,38.70
2018-10-21T09:06:51.100Z,38.60
2018-10-21T09:09:18.549Z,38.70
2018-10-21T09:11:45.085Z,38.70
2018-10-21T09:14:10.957Z,38.60
2018-10-21T09:16:37.035Z,38.70
2018-10-21T09:19:02.839Z,38.70
2018-10-21T09:21:28.670Z,38.60
2018-10-21T09:23:55.350Z,38.80
2018-10-21T09:26:23.676Z,38.70
2018-10-21T09:28:50.228Z,38.70
2018-10-21T09:31:16.877Z,38.80
2018-10-21T09:33:42.658Z,38.60
2018-10-21T09:38:40.009Z,38.80
2018-10-21T09:41:05.829Z,38.80
2018-10-21T09:43:31.622Z,39.00
2018-10-21T09:48:29.983Z,38.90
2018-10-21T09:50:55.771Z,38.90
2018-10-21T09:53:21.572Z,38.90
2018-10-21T09:55:47.369Z,38.90
2018-10-21T10:00:44.725Z,38.90
2018-10-21T10:05:42.650Z,38.90
2018-10-21T10:10:40.656Z,39.00
2018-10-21T10:13:06.477Z,38.90
2018-10-21T10:15:32.264Z,39.10
2018-10-21T10:17:58.075Z,39.00
2018-10-21T10:20:24.152Z,39.00
2018-10-21T10:22:49.943Z,38.90
2018-10-21T10:25:15.803Z,39.00
2018-10-21T10:32:47.916Z,39.10
2018-10-21T10:35:17.082Z,39.00
2018-10-21T10:37:43.011Z,39.10
2018-10-21T10:40:09.204Z,39.30
2018-10-21T10:45:06.514Z,38.80
2018-10-21T10:47:33.256Z,38.90
2018-10-21T10:49:59.047Z,38.90
2018-10-21T10:54:59.053Z,38.80
2018-10-21T10:57:29.227Z,38.80
2018-10-21T10:59:55.153Z,38.70
2018-10-21T11:02:23.170Z,38.70
2018-10-21T11:04:53.152Z,38.70
2018-10-21T11:07:19.569Z,38.60
2018-10-21T11:09:45.447Z,38.60
2018-10-21T11:12:11.265Z,38.60
2018-10-21T11:14:37.118Z,38.70
2018-10-21T11:17:05.421Z,38.60
2018-10-21T11:19:31.977Z,38.60
2018-10-21T11:21:57.780Z,38.50
2018-10-21T11:24:24.372Z,38.60
2018-10-21T11:26:50.175Z,38.50
2018-10-21T11:31:48.124Z,38.50
2018-10-21T11:34:14.861Z,38.50
2018-10-21T11:41:44.063Z,38.50
2018-10-21T11:46:41.871Z,38.60
2018-10-21T11:49:07.699Z,38.50
2018-10-21T11:54:05.016Z,38.90
2018-10-21T11:56:30.813Z,39.00
2018-10-21T11:58:57.144Z,39.10
2018-10-21T12:01:23.232Z,39.30
2018-10-21T12:03:49.025Z,39.40
2018-10-21T12:06:15.643Z,39.50
2018-10-21T12:11:13.095Z,39.70
2018-10-21T12:13:38.894Z,39.70
2018-10-21T12:16:05.518Z,39.90
2018-10-21T12:21:02.948Z,39.90
2018-10-21T12:23:28.818Z,40.10
2018-10-21T12:25:55.289Z,40.10
2018-10-21T12:28:21.128Z,40.30
2018-10-21T12:30:46.971Z,40.30
2018-10-21T12:33:12.864Z,40.30
2018-10-21T12:35:38.659Z,40.40
2018-10-21T12:38:05.434Z,40.30
2018-10-21T12:40:31.227Z,40.50
2018-10-21T12:42:57.100Z,40.60
2018-10-21T12:45:23.105Z,40.70
2018-10-21T12:47:53.103Z,40.80
2018-10-21T12:52:51.015Z,41.00
2018-10-21T12:55:17.925Z,41.00
2018-10-21T12:57:43.688Z,41.10
2018-10-21T13:00:09.475Z,41.20
2018-10-21T13:02:35.351Z,41.10
2018-10-21T13:05:01.891Z,40.90
2018-10-21T13:07:28.435Z,41.40
2018-10-21T13:12:29.129Z,41.60
2018-10-21T13:14:54.924Z,41.50
2018-10-21T13:17:20.716Z,41.50
2018-10-21T13:19:46.543Z,41.50
2018-10-21T13:22:12.430Z,41.70
2018-10-21T13:24:38.215Z,41.90
2018-10-21T13:27:04.006Z,41.70
2018-10-21T13:29:30.549Z,41.70
2018-10-21T13:31:56.336Z,41.70
2018-10-21T13:34:22.153Z,41.70
2018-10-21T13:36:48.905Z,41.80
2018-10-21T13:41:47.621Z,41.90
2018-10-21T13:44:14.135Z,41.90
2018-10-21T13:46:39.924Z,41.90
2018-10-21T13:49:07.414Z,41.90
2018-10-21T13:51:33.391Z,41.90
2018-10-21T13:53:59.329Z,41.90
2018-10-21T13:58:57.247Z,42.20
2018-10-21T14:01:23.052Z,42.10
2018-10-21T14:03:48.820Z,42.30
2018-10-21T14:08:46.224Z,42.10
2018-10-21T14:11:12.405Z,42.10
2018-10-21T14:21:14.498Z,42.20
2018-10-21T14:23:40.294Z,42.30
2018-10-21T14:26:06.083Z,42.20
2018-10-21T14:28:32.024Z,42.30
2018-10-21T14:30:57.889Z,42.30
2018-10-21T14:35:59.202Z,42.20
2018-10-21T14:38:25.072Z,42.30
2018-10-21T14:43:22.699Z,42.20
2018-10-21T14:45:49.061Z,42.30
2018-10-21T14:48:16.513Z,42.40
2018-10-21T14:50:42.426Z,42.30
2018-10-21T14:53:08.404Z,42.40
2018-10-21T14:55:34.200Z,42.30
2018-10-21T14:57:59.989Z,42.40
2018-10-21T15:00:27.011Z,42.40
2018-10-21T15:02:54.286Z,42.50
2018-10-21T15:05:23.223Z,42.30
2018-10-21T15:07:50.654Z,42.40
2018-10-21T15:10:16.543Z,42.40
2018-10-21T15:12:42.369Z,42.40
2018-10-21T15:15:08.162Z,42.40
2018-10-21T15:17:33.959Z,42.50
2018-10-21T15:20:00.887Z,42.80
2018-10-21T15:22:27.364Z,42.70
2018-10-21T15:24:53.170Z,42.90
2018-10-21T15:27:19.724Z,42.70
2018-10-21T15:29:45.967Z,42.60
2018-10-21T15:32:12.001Z,42.50
2018-10-21T15:34:37.789Z,42.30
2018-10-21T15:37:04.007Z,42.30
2018-10-21T15:39:30.252Z,42.30
2018-10-21T15:41:57.894Z,42.30
2018-10-21T15:44:23.696Z,42.30
2018-10-21T15:46:49.878Z,42.40
2018-10-21T15:49:15.679Z,42.60
2018-10-21T15:51:41.526Z,42.70
2018-10-21T15:54:07.393Z,42.60
2018-10-21T15:56:35.448Z,42.80
2018-10-21T15:59:01.706Z,42.70
2018-10-21T16:01:27.600Z,42.70
2018-10-21T16:11:30.516Z,42.90
2018-10-21T16:13:56.449Z,42.60
2018-10-21T16:16:22.347Z,42.70
2018-10-21T16:18:48.140Z,42.80
2018-10-21T16:21:14.018Z,42.90
2018-10-21T16:23:39.816Z,42.90
2018-10-21T16:26:06.012Z,43.00
2018-10-21T16:28:33.896Z,43.00
2018-10-21T16:30:59.836Z,42.90
2018-10-21T16:33:26.104Z,42.90
2018-10-21T16:35:51.929Z,42.90
2018-10-21T16:38:18.462Z,42.90
2018-10-21T16:40:44.272Z,42.80
2018-10-21T16:43:10.084Z,42.90
2018-10-21T16:45:35.879Z,42.90
2018-10-21T16:48:01.728Z,43.00
2018-10-21T16:50:27.503Z,43.00
2018-10-21T16:52:53.377Z,43.00
2018-10-21T16:55:19.113Z,43.00
2018-10-21T16:57:44.904Z,43.10
2018-10-21T17:00:10.740Z,43.20
2018-10-21T17:02:36.503Z,43.30
2018-10-21T17:05:02.341Z,43.40
2018-10-21T17:07:28.129Z,43.40
2018-10-21T17:09:54.505Z,43.50
2018-10-21T17:12:19.989Z,43.50
2018-10-21T17:14:45.962Z,43.30
2018-10-21T17:17:11.888Z,43.40
2018-10-21T17:19:38.427Z,43.80
2018-10-21T17:22:04.270Z,43.70
2018-10-21T17:24:30.085Z,43.70
2018-10-21T17:26:57.517Z,43.70
2018-10-21T17:31:56.307Z,43.50
2018-10-21T17:34:22.853Z,43.40
2018-10-21T17:36:49.387Z,43.40
2018-10-21T17:39:15.940Z,43.50
2018-10-21T17:41:41.728Z,43.50
2018-10-21T17:44:08.226Z,43.60
2018-10-21T17:46:34.068Z,43.70
2018-10-21T17:48:59.856Z,43.70
2018-10-21T17:51:25.652Z,43.70
2018-10-21T17:53:51.448Z,43.60
2018-10-21T17:56:17.236Z,43.70
2018-10-21T17:58:43.239Z,43.60
2018-10-21T18:01:09.057Z,43.60
2018-10-21T18:03:34.868Z,43.60
2018-10-21T18:06:00.675Z,43.60
2018-10-21T18:08:26.939Z,43.60
2018-10-21T18:10:53.399Z,43.50
2018-10-21T18:13:19.188Z,43.50
2018-10-21T18:15:44.985Z,43.40
2018-10-21T18:18:11.360Z,43.40
2018-10-21T18:20:37.193Z,43.50
2018-10-21T18:23:03.116Z,43.40
2018-10-21T18:25:28.923Z,43.40
2018-10-21T18:27:54.780Z,43.30
2018-10-21T18:30:20.523Z,43.40
2018-10-21T18:32:46.326Z,43.20
2018-10-21T18:35:12.119Z,43.20
2018-10-21T18:37:38.660Z,43.20
2018-10-21T18:40:05.244Z,43.20
2018-10-21T18:42:31.017Z,43.20
2018-10-21T18:44:57.592Z,43.00
2018-10-21T18:47:23.384Z,43.00
2018-10-21T18:49:49.442Z,43.10
2018-10-21T18:52:15.324Z,43.00
2018-10-21T18:54:41.061Z,43.00
2018-10-21T18:57:06.908Z,43.00
2018-10-21T18:59:32.754Z,43.00
2018-10-21T19:01:58.619Z,42.80
2018-10-21T19:04:24.408Z,42.90
2018-10-21T19:06:50.956Z,42.90
2018-10-21T19:09:17.489Z,42.90
2018-10-21T19:14:14.740Z,42.80
2018-10-21T19:16:40.546Z,42.80
2018-10-21T19:19:07.248Z,42.70
2018-10-21T19:21:33.083Z,42.70
2018-10-21T19:23:58.880Z,42.60
2018-10-21T19:26:24.664Z,42.60
2018-10-21T19:28:51.200Z,42.60
2018-10-21T19:31:18.897Z,42.80
2018-10-21T19:33:44.825Z,42.70
2018-10-21T19:36:10.614Z,42.60
2018-10-21T19:38:37.151Z,42.60
2018-10-21T19:41:03.103Z,42.50
2018-10-21T19:43:28.967Z,42.50
2018-10-21T19:45:54.718Z,42.60
2018-10-21T19:48:20.529Z,42.40
2018-10-21T19:50:47.209Z,42.50
2018-10-21T19:53:13.163Z,42.50
2018-10-21T19:55:39.127Z,42.50
2018-10-21T19:58:04.946Z,42.40
2018-10-21T20:00:30.823Z,42.30
2018-10-21T20:02:56.750Z,43.00
2018-10-21T20:05:22.541Z,42.40
2018-10-21T20:07:49.808Z,42.40
2018-10-21T20:10:16.405Z,42.40
2018-10-21T20:12:42.032Z,42.40
2018-10-21T20:15:07.827Z,42.90
2018-10-21T20:17:33.827Z,42.30
2018-10-21T20:19:59.683Z,42.30
2018-10-21T20:22:25.477Z,42.30
2018-10-21T20:24:51.300Z,42.30
2018-10-21T20:27:17.131Z,42.30
2018-10-21T20:29:43.019Z,42.30
2018-10-21T20:32:10.997Z,42.20
2018-10-21T20:34:36.991Z,42.30
2018-10-21T20:37:02.936Z,42.30
2018-10-21T20:39:28.805Z,42.10
2018-10-21T20:41:54.975Z,42.20
2018-10-21T20:44:20.765Z,42.10
2018-10-21T20:46:48.950Z,42.10
2018-10-21T20:49:14.851Z,42.10
2018-10-21T20:51:40.758Z,42.10
2018-10-21T20:54:06.462Z,42.10
2018-10-21T20:56:32.327Z,42.10
2018-10-21T20:58:58.564Z,42.00
2018-10-21T21:01:24.642Z,42.10
2018-10-21T21:03:50.445Z,42.10
2018-10-21T21:06:16.263Z,42.10
2018-10-21T21:08:42.040Z,42.20
2018-10-21T21:11:08.061Z,42.10
2018-10-21T21:13:34.705Z,42.20
2018-10-21T21:16:00.741Z,42.20
2018-10-21T21:18:26.743Z,42.20
2018-10-21T21:23:24.093Z,42.30
2018-10-21T21:25:49.892Z,42.30
2018-10-21T21:28:16.216Z,42.30
2018-10-21T21:30:42.066Z,42.40
2018-10-21T21:33:08.577Z,42.40
2018-10-21T21:35:34.368Z,42.40
2018-10-21T21:38:00.169Z,42.40
2018-10-21T21:40:29.440Z,42.40
2018-10-21T21:42:55.261Z,42.40
2018-10-21T21:45:21.074Z,42.40
2018-10-21T21:47:47.207Z,42.50
2018-10-21T21:50:13.044Z,42.30
2018-10-21T21:52:39.070Z,42.30
2018-10-21T21:55:04.851Z,42.30
2018-10-21T22:00:02.788Z,42.30
2018-10-21T22:02:28.547Z,42.40
2018-10-21T22:04:54.344Z,42.30
2018-10-21T22:07:20.135Z,42.50
2018-10-21T22:09:45.998Z,42.40
2018-10-21T22:12:11.861Z,42.30
2018-10-21T22:17:10.505Z,42.30
2018-10-21T22:19:36.488Z,42.30
2018-10-21T22:22:02.355Z,42.40
2018-10-21T22:24:28.196Z,42.40
2018-10-21T22:26:53.975Z,42.30
2018-10-21T22:29:21.262Z,42.20
2018-10-21T22:31:47.873Z,42.30
2018-10-21T22:34:13.720Z,42.30
2018-10-21T22:36:39.457Z,42.30
2018-10-21T22:39:05.265Z,42.20
2018-10-21T22:41:31.054Z,42.30
2018-10-21T22:43:56.843Z,42.30
2018-10-21T22:46:22.627Z,42.20
2018-10-21T22:48:48.798Z,42.20
2018-10-21T22:51:14.676Z,42.10
2018-10-21T22:53:40.459Z,42.20
2018-10-21T22:56:12.221Z,42.10
2018-10-21T22:58:38.015Z,42.10
2018-10-21T23:01:03.952Z,42.10
2018-10-21T23:03:29.752Z,42.20
2018-10-21T23:05:56.687Z,42.20
2018-10-21T23:08:22.479Z,42.20
2018-10-21T23:10:48.285Z,42.20
2018-10-21T23:13:15.020Z,42.20
2018-10-21T23:15:40.900Z,42.20
2018-10-21T23:18:06.721Z,42.20
2018-10-21T23:20:32.609Z,42.10
2018-10-21T23:22:58.401Z,42.10
2018-10-21T23:25:24.246Z,42.10
2018-10-21T23:27:50.032Z,42.00
2018-10-21T23:30:15.884Z,42.10
2018-10-21T23:35:13.726Z,42.00
2018-10-21T23:37:39.511Z,41.90
2018-10-21T23:40:05.379Z,41.90
2018-10-21T23:42:31.176Z,41.80
2018-10-21T23:44:58.475Z,41.70
2018-10-21T23:47:24.273Z,41.70
2018-10-21T23:49:50.809Z,41.80
2018-10-21T23:52:16.691Z,41.80
2018-10-21T23:54:43.616Z,41.70
2018-10-21T23:57:09.416Z,41.70
2018-10-21T23:59:35.586Z,41.70
